Time;durP1;ratioP1;P1;durP2;ratioP2;P2;SDS_P1;SDS_P2;PMS_P1;PMS_P2;Temp;Humidity;BMP_temperature;BMP_pressure;BME280_temperature;BME280_humidity;BME280_pressure;Samples;Min_cycle;Max_cycle;Signal;HPM_P1;HPM_P2
2021/09/19 00:00:21;;;;;;;8.75;7.93;;;14.60;99.90;;;;;;5052699;28;20655;-78
2021/09/19 00:02:47;;;;;;;9.52;7.93;;;14.60;99.90;;;;;;5051957;28;20150;-78
2021/09/19 00:05:13;;;;;;;8.70;7.88;;;14.60;99.90;;;;;;5052823;28;20120;-78
2021/09/19 00:07:39;;;;;;;7.80;7.13;;;14.60;99.90;;;;;;5052639;28;20485;-78
2021/09/19 00:10:07;;;;;;;9.10;7.50;;;14.50;99.90;;;;;;5052733;28;20028;-79
2021/09/19 00:12:33;;;;;;;9.30;8.40;;;14.50;99.90;;;;;;5053569;28;20024;-78
2021/09/19 00:14:59;;;;;;;9.00;8.20;;;14.50;99.90;;;;;;5052789;28;20024;-76
2021/09/19 00:17:24;;;;;;;8.85;8.10;;;14.40;99.90;;;;;;5051954;28;20025;-77
2021/09/19 00:19:50;;;;;;;10.18;9.18;;;14.40;99.90;;;;;;5052524;28;20465;-77
2021/09/19 00:22:15;;;;;;;9.88;9.07;;;14.40;99.90;;;;;;5052442;28;20051;-77
2021/09/19 00:24:41;;;;;;;9.73;8.73;;;14.40;99.90;;;;;;5051761;28;20025;-77
2021/09/19 00:27:07;;;;;;;10.00;8.73;;;14.30;99.90;;;;;;5052556;28;20090;-76
2021/09/19 00:29:32;;;;;;;9.32;8.52;;;14.30;99.90;;;;;;5052670;28;20048;-76
2021/09/19 00:31:58;;;;;;;9.70;8.80;;;14.30;99.90;;;;;;5051984;28;20119;-76
2021/09/19 00:34:24;;;;;;;9.82;8.82;;;14.20;99.90;;;;;;5052690;28;20060;-77
2021/09/19 00:36:50;;;;;;;10.88;8.25;;;14.20;99.90;;;;;;5052444;28;20042;-76
2021/09/19 00:39:18;;;;;;;9.63;8.73;;;14.20;99.90;;;;;;5053739;28;20021;-76
2021/09/19 00:41:43;;;;;;;8.82;7.85;;;14.10;99.90;;;;;;5056300;28;20040;-78
2021/09/19 00:44:10;;;;;;;9.27;8.25;;;14.10;99.90;;;;;;5055512;28;20429;-77
2021/09/19 00:46:37;;;;;;;8.88;8.13;;;14.10;99.90;;;;;;5056204;28;20024;-77
2021/09/19 00:49:03;;;;;;;9.27;7.95;;;14.10;99.90;;;;;;5056169;28;20074;-77
2021/09/19 00:51:30;;;;;;;9.15;8.25;;;14.10;99.90;;;;;;5055224;28;20028;-79
2021/09/19 00:53:57;;;;;;;9.43;8.60;;;14.10;99.90;;;;;;5055856;28;20131;-78
2021/09/19 00:56:28;;;;;;;10.13;8.88;;;14.00;99.90;;;;;;5056001;28;20108;-77
2021/09/19 00:58:55;;;;;;;9.82;8.93;;;14.00;99.90;;;;;;5055351;28;20023;-77
2021/09/19 01:01:27;;;;;;;10.00;8.90;;;14.00;99.90;;;;;;5059202;28;20215;-79
2021/09/19 01:03:53;;;;;;;9.73;8.77;;;14.00;99.90;;;;;;5055621;28;20082;-77
2021/09/19 01:06:19;;;;;;;8.98;8.27;;;14.00;99.90;;;;;;5055430;28;20036;-78
2021/09/19 01:08:45;;;;;;;9.75;8.80;;;14.00;99.90;;;;;;5055940;28;20021;-77
2021/09/19 01:11:15;;;;;;;10.32;9.32;;;13.90;99.90;;;;;;5055738;28;20033;-76
2021/09/19 01:13:43;;;;;;;9.70;8.85;;;13.90;99.90;;;;;;5057255;28;20027;-77
2021/09/19 01:16:13;;;;;;;9.50;8.43;;;13.90;99.90;;;;;;5055556;28;20477;-78
2021/09/19 01:18:40;;;;;;;9.57;8.68;;;13.90;99.90;;;;;;5055816;28;20035;-77
2021/09/19 01:21:07;;;;;;;10.02;9.02;;;13.80;99.90;;;;;;5054617;28;20520;-77
2021/09/19 01:23:33;;;;;;;10.20;9.18;;;13.80;99.90;;;;;;5055795;28;20101;-76
2021/09/19 01:26:00;;;;;;;9.93;8.90;;;13.80;99.90;;;;;;5055605;28;20029;-78
2021/09/19 01:28:26;;;;;;;16.95;9.63;;;13.80;99.90;;;;;;5054670;28;20112;-78
2021/09/19 01:30:52;;;;;;;9.65;8.75;;;13.80;99.90;;;;;;5055338;28;20048;-78
2021/09/19 01:33:18;;;;;;;11.07;10.05;;;13.70;99.90;;;;;;5055080;28;20048;-76
2021/09/19 01:35:43;;;;;;;12.68;9.82;;;13.80;99.90;;;;;;5054967;28;20029;-78
2021/09/19 01:38:09;;;;;;;10.15;9.35;;;13.70;99.90;;;;;;5055329;28;20495;-77
2021/09/19 01:40:34;;;;;;;10.75;9.57;;;13.70;99.90;;;;;;5054131;28;20512;-77
2021/09/19 01:43:00;;;;;;;12.65;9.52;;;13.70;99.90;;;;;;5055032;28;20461;-79
2021/09/19 01:45:28;;;;;;;9.88;9.07;;;13.70;99.90;;;;;;5055133;28;20037;-77
2021/09/19 01:47:53;;;;;;;9.60;8.80;;;13.60;99.90;;;;;;5054143;28;20031;-78
2021/09/19 01:50:21;;;;;;;11.52;9.20;;;13.60;99.90;;;;;;5054657;28;20100;-76
2021/09/19 01:52:47;;;;;;;10.35;9.50;;;13.60;99.90;;;;;;5054747;28;20104;-78
2021/09/19 01:55:13;;;;;;;10.05;9.25;;;13.60;99.90;;;;;;5054171;28;20029;-77
2021/09/19 01:57:38;;;;;;;11.40;10.25;;;13.60;99.90;;;;;;5054812;28;20119;-78
2021/09/19 02:00:05;;;;;;;10.98;9.93;;;13.60;99.90;;;;;;5054667;28;20107;-77
2021/09/19 02:02:34;;;;;;;9.85;8.95;;;13.50;99.90;;;;;;5053892;28;20028;-77
2021/09/19 02:05:00;;;;;;;10.82;9.93;;;13.60;99.90;;;;;;5054805;28;20366;-77
2021/09/19 02:07:25;;;;;;;9.90;9.07;;;13.50;99.90;;;;;;5054496;28;20473;-76
2021/09/19 02:09:51;;;;;;;11.75;10.65;;;13.50;99.90;;;;;;5053890;28;20091;-77
2021/09/19 02:12:17;;;;;;;10.55;9.65;;;13.60;99.90;;;;;;5054599;28;20398;-77
2021/09/19 02:14:43;;;;;;;11.88;10.68;;;13.50;99.90;;;;;;5054518;28;20048;-77
2021/09/19 02:17:10;;;;;;;12.13;10.10;;;13.50;99.90;;;;;;5053807;28;20021;-78
2021/09/19 02:19:36;;;;;;;11.27;10.27;;;13.50;99.90;;;;;;5054098;28;20029;-77
2021/09/19 02:22:02;;;;;;;12.05;10.95;;;13.50;99.90;;;;;;5054219;28;20037;-77
2021/09/19 02:24:27;;;;;;;12.95;11.82;;;13.50;99.90;;;;;;5053681;28;20171;-76
2021/09/19 02:26:53;;;;;;;13.15;11.95;;;13.50;99.90;;;;;;5054116;28;20112;-78
2021/09/19 02:29:19;;;;;;;11.63;10.63;;;13.50;99.90;;;;;;5054084;28;20024;-78
2021/09/19 02:31:47;;;;;;;10.75;9.93;;;13.50;99.90;;;;;;5053413;28;20023;-77
2021/09/19 02:34:13;;;;;;;12.38;10.95;;;13.40;99.90;;;;;;5054147;28;20021;-77
2021/09/19 02:36:40;;;;;;;11.57;10.48;;;13.40;99.90;;;;;;5053517;28;20040;-78
2021/09/19 02:39:09;;;;;;;10.85;9.82;;;13.40;99.90;;;;;;5053884;28;20024;-78
2021/09/19 02:41:35;;;;;;;11.20;10.30;;;13.40;99.90;;;;;;5053816;28;20094;-78
2021/09/19 02:44:02;;;;;;;11.75;10.52;;;13.50;99.90;;;;;;5053158;28;20040;-78
2021/09/19 02:46:27;;;;;;;12.93;10.80;;;13.40;99.90;;;;;;5053776;28;20029;-78
2021/09/19 02:48:53;;;;;;;11.45;10.20;;;13.40;99.90;;;;;;5053979;28;20040;-77
2021/09/19 02:51:18;;;;;;;12.00;10.85;;;13.40;99.90;;;;;;5053183;28;20488;-78
2021/09/19 02:53:44;;;;;;;12.27;10.77;;;13.40;99.90;;;;;;5053184;28;20033;-77
2021/09/19 02:56:09;;;;;;;12.30;11.10;;;13.40;99.90;;;;;;5053828;28;20021;-77
2021/09/19 02:58:37;;;;;;;11.20;10.13;;;13.40;99.90;;;;;;5053041;28;20021;-77
2021/09/19 03:01:03;;;;;;;12.48;11.43;;;13.30;99.90;;;;;;5052876;28;20033;-77
2021/09/19 03:03:28;;;;;;;13.00;11.80;;;13.40;99.90;;;;;;5053757;28;20021;-77
2021/09/19 03:05:54;;;;;;;12.05;10.93;;;13.30;99.90;;;;;;5052928;28;20488;-77
2021/09/19 03:08:19;;;;;;;12.90;11.60;;;13.30;99.90;;;;;;5053574;28;20484;-79
2021/09/19 03:10:45;;;;;;;14.05;11.68;;;13.30;99.90;;;;;;5053519;28;20024;-79
2021/09/19 03:13:11;;;;;;;11.90;10.82;;;13.30;99.90;;;;;;5052492;28;20029;-78
2021/09/19 03:15:37;;;;;;;13.35;12.05;;;13.50;99.90;;;;;;5054240;28;20064;-78
2021/09/19 03:18:03;;;;;;;13.27;11.98;;;13.30;99.90;;;;;;5053390;28;20113;-79
2021/09/19 03:20:28;;;;;;;13.85;12.55;;;13.20;99.90;;;;;;5052418;28;20040;-78
2021/09/19 03:22:54;;;;;;;13.52;12.20;;;13.20;99.90;;;;;;5053356;28;20024;-77
2021/09/19 03:25:19;;;;;;;13.70;12.27;;;13.20;99.90;;;;;;5053192;28;20028;-77
2021/09/19 03:27:45;;;;;;;13.32;11.73;;;13.20;99.90;;;;;;5052921;28;20021;-78
2021/09/19 03:30:12;;;;;;;12.93;11.63;;;13.20;99.90;;;;;;5060042;28;20427;-77
2021/09/19 03:32:39;;;;;;;13.05;11.95;;;13.20;99.90;;;;;;5060571;28;20032;-78
2021/09/19 03:35:08;;;;;;;13.00;11.73;;;13.20;99.90;;;;;;5069034;28;20067;-77
2021/09/19 03:37:34;;;;;;;13.23;10.93;;;13.20;99.90;;;;;;5053880;28;20024;-77
2021/09/19 03:39:59;;;;;;;13.63;12.23;;;13.20;99.90;;;;;;5052760;28;20049;-77
2021/09/19 03:42:25;;;;;;;12.43;11.32;;;13.20;99.90;;;;;;5057479;28;20032;-77
2021/09/19 03:44:51;;;;;;;13.80;12.50;;;13.10;99.90;;;;;;5052842;28;20511;-78
2021/09/19 03:47:17;;;;;;;13.68;12.38;;;13.10;99.90;;;;;;5052161;28;20033;-77
2021/09/19 03:49:43;;;;;;;12.95;11.80;;;13.10;99.90;;;;;;5052887;28;20096;-77
2021/09/19 03:52:09;;;;;;;14.38;12.60;;;13.10;99.90;;;;;;5052756;28;20399;-78
2021/09/19 03:54:35;;;;;;;15.35;11.90;;;13.10;99.90;;;;;;5051985;28;20025;-78
2021/09/19 03:57:01;;;;;;;13.20;11.60;;;13.10;99.90;;;;;;5052541;28;20491;-77
2021/09/19 03:59:27;;;;;;;13.50;12.23;;;13.10;99.90;;;;;;5052959;28;20021;-79
2021/09/19 04:01:52;;;;;;;15.75;14.00;;;13.10;99.90;;;;;;5052120;28;20120;-77
2021/09/19 04:04:18;;;;;;;13.32;12.15;;;13.10;99.90;;;;;;5052818;28;20021;-78
2021/09/19 04:06:44;;;;;;;13.90;12.60;;;13.00;99.90;;;;;;5052693;28;20102;-78
2021/09/19 04:09:10;;;;;;;14.80;13.23;;;13.10;99.90;;;;;;5051906;28;20082;-79
2021/09/19 04:11:35;;;;;;;14.35;13.05;;;13.00;99.90;;;;;;5052593;28;20033;-79
2021/09/19 04:14:01;;;;;;;14.88;13.10;;;13.00;99.90;;;;;;5056328;28;20490;-77
2021/09/19 04:16:26;;;;;;;14.95;13.40;;;13.00;99.90;;;;;;5055998;28;20483;-77
2021/09/19 04:18:52;;;;;;;14.55;12.93;;;12.90;99.90;;;;;;5056691;28;20109;-77
2021/09/19 04:21:17;;;;;;;15.13;13.07;;;12.90;99.90;;;;;;5056346;28;20120;-79
2021/09/19 04:23:43;;;;;;;17.10;13.80;;;13.00;99.90;;;;;;5055732;28;20060;-79
2021/09/19 04:26:08;;;;;;;15.23;13.65;;;13.00;99.90;;;;;;5056337;28;20123;-79
2021/09/19 04:28:34;;;;;;;14.15;12.75;;;13.00;99.90;;;;;;5056609;28;20024;-77
2021/09/19 04:31:02;;;;;;;14.68;13.35;;;13.00;99.90;;;;;;5055670;28;20032;-77
2021/09/19 04:33:28;;;;;;;13.45;12.25;;;13.00;99.90;;;;;;5056446;28;20396;-79
2021/09/19 04:35:53;;;;;;;15.52;13.93;;;12.90;99.90;;;;;;5056319;28;20074;-77
2021/09/19 04:38:19;;;;;;;14.98;13.48;;;12.90;99.90;;;;;;5055465;28;20029;-77
2021/09/19 04:40:44;;;;;;;14.35;12.98;;;12.90;99.90;;;;;;5055857;28;20053;-78
2021/09/19 04:43:12;;;;;;;16.83;14.02;;;12.90;99.90;;;;;;5055908;28;20032;-77
2021/09/19 04:45:39;;;;;;;15.93;14.30;;;12.90;99.90;;;;;;5055894;28;20037;-77
2021/09/19 04:48:05;;;;;;;14.82;13.48;;;12.90;99.90;;;;;;5056022;28;20040;-77
2021/09/19 04:50:31;;;;;;;15.70;14.13;;;12.90;99.90;;;;;;5055364;28;20029;-78
2021/09/19 04:52:56;;;;;;;15.00;13.40;;;12.90;99.90;;;;;;5056046;28;20531;-78
2021/09/19 04:55:22;;;;;;;16.85;14.73;;;12.80;99.90;;;;;;5055788;28;20461;-77
2021/09/19 04:57:47;;;;;;;15.00;13.48;;;12.90;99.90;;;;;;5055132;28;20051;-77
2021/09/19 05:00:13;;;;;;;15.68;14.10;;;12.90;99.90;;;;;;5055825;28;20037;-77
2021/09/19 05:02:39;;;;;;;16.05;14.38;;;12.80;99.90;;;;;;5055841;28;20029;-76
2021/09/19 05:05:06;;;;;;;15.98;14.45;;;12.80;99.90;;;;;;5055190;28;20417;-76
2021/09/19 05:07:31;;;;;;;16.05;14.45;;;12.80;99.90;;;;;;5055881;28;20330;-78
2021/09/19 05:09:57;;;;;;;14.82;13.43;;;12.90;99.90;;;;;;5055368;28;20036;-78
2021/09/19 05:12:22;;;;;;;17.98;14.23;;;12.80;99.90;;;;;;5054950;28;20021;-77
2021/09/19 05:14:49;;;;;;;20.20;14.85;;;12.80;99.90;;;;;;5055703;28;20551;-77
2021/09/19 05:17:15;;;;;;;18.50;14.85;;;12.80;99.90;;;;;;5055604;28;20124;-77
2021/09/19 05:19:41;;;;;;;15.63;14.00;;;12.80;99.90;;;;;;5054682;28;20044;-78
2021/09/19 05:22:07;;;;;;;18.00;14.68;;;12.80;99.90;;;;;;5055581;28;20432;-78
2021/09/19 05:24:33;;;;;;;16.17;14.57;;;12.80;99.90;;;;;;5054762;28;20108;-77
2021/09/19 05:26:58;;;;;;;17.08;13.75;;;12.80;99.90;;;;;;5054919;28;20024;-77
2021/09/19 05:29:24;;;;;;;15.27;13.77;;;12.80;99.90;;;;;;5055415;28;20021;-79
2021/09/19 05:31:49;;;;;;;15.88;14.13;;;12.80;99.90;;;;;;5055364;28;20044;-78
2021/09/19 05:34:15;;;;;;;16.63;14.90;;;12.80;99.90;;;;;;5054501;28;20491;-79
2021/09/19 05:36:40;;;;;;;16.42;14.65;;;12.80;99.90;;;;;;5055201;28;20032;-78
2021/09/19 05:39:06;;;;;;;17.05;14.40;;;12.90;99.90;;;;;;5054870;28;20436;-79
2021/09/19 05:41:32;;;;;;;16.15;14.57;;;12.80;99.90;;;;;;5054454;28;20033;-79
2021/09/19 05:43:58;;;;;;;16.90;15.10;;;12.90;99.90;;;;;;5055176;28;20032;-78
2021/09/19 05:46:23;;;;;;;18.77;14.90;;;12.90;99.90;;;;;;5055091;28;20021;-78
2021/09/19 05:48:49;;;;;;;18.05;14.77;;;12.90;99.90;;;;;;5054091;28;20024;-77
2021/09/19 05:51:15;;;;;;;18.67;15.32;;;12.90;99.90;;;;;;5054728;28;20028;-77
2021/09/19 05:53:41;;;;;;;17.42;15.57;;;12.90;99.90;;;;;;5054207;28;20469;-78
2021/09/19 05:56:07;;;;;;;17.88;16.10;;;12.90;99.90;;;;;;5058988;28;20029;-79
2021/09/19 05:58:33;;;;;;;16.75;14.73;;;12.90;99.90;;;;;;5055607;28;20048;-77
2021/09/19 06:00:58;;;;;;;16.88;15.18;;;12.90;99.90;;;;;;5054074;28;20512;-79
2021/09/19 06:03:24;;;;;;;16.40;14.75;;;13.00;99.90;;;;;;5054641;28;20106;-78
2021/09/19 06:05:50;;;;;;;16.23;14.60;;;13.00;99.90;;;;;;5054647;28;20029;-79
2021/09/19 06:08:15;;;;;;;15.98;14.38;;;13.00;99.90;;;;;;5055201;28;20025;-77
2021/09/19 06:10:41;;;;;;;16.15;14.55;;;13.10;99.90;;;;;;5056874;28;20526;-78
2021/09/19 06:13:06;;;;;;;17.30;14.95;;;13.10;99.90;;;;;;5054528;28;20491;-78
2021/09/19 06:15:32;;;;;;;17.02;14.35;;;13.10;99.90;;;;;;5053657;28;20083;-78
2021/09/19 06:17:57;;;;;;;17.00;14.38;;;13.20;99.90;;;;;;5054324;28;20029;-78
2021/09/19 06:20:23;;;;;;;16.90;15.13;;;13.20;99.90;;;;;;5054339;28;20036;-78
2021/09/19 06:22:49;;;;;;;16.20;14.65;;;13.20;99.90;;;;;;5053533;28;20021;-79
2021/09/19 06:25:14;;;;;;;15.15;13.70;;;13.30;99.90;;;;;;5054474;28;20385;-79
2021/09/19 06:27:40;;;;;;;16.90;15.10;;;13.30;99.90;;;;;;5054469;28;20362;-79
2021/09/19 06:30:13;;;;;;;17.70;15.00;;;13.30;99.90;;;;;;5053583;28;20447;-79
2021/09/19 06:32:39;;;;;;;16.80;14.95;;;13.40;99.90;;;;;;5054711;28;20439;-79
2021/09/19 06:35:05;;;;;;;15.30;13.70;;;13.40;99.90;;;;;;5057011;28;20021;-78
2021/09/19 06:37:31;;;;;;;19.55;14.88;;;13.50;99.90;;;;;;5054184;28;20091;-78
2021/09/19 06:39:56;;;;;;;18.08;13.80;;;13.50;99.90;;;;;;5054410;28;20044;-78
2021/09/19 06:42:22;;;;;;;16.98;14.40;;;13.50;99.90;;;;;;5054238;28;20473;-80
2021/09/19 06:44:49;;;;;;;16.08;14.43;;;13.50;99.90;;;;;;5053673;28;20093;-78
2021/09/19 06:47:15;;;;;;;16.55;14.52;;;13.60;99.90;;;;;;5055299;28;20393;-80
2021/09/19 06:49:41;;;;;;;16.70;13.60;;;13.70;99.90;;;;;;5058038;28;20017;-78
2021/09/19 06:52:06;;;;;;;15.27;13.40;;;13.70;99.90;;;;;;5055222;28;20029;-78
2021/09/19 06:54:32;;;;;;;15.85;14.43;;;13.80;99.90;;;;;;5055909;28;20028;-78
2021/09/19 06:56:57;;;;;;;17.52;13.95;;;13.80;99.90;;;;;;5052954;28;20033;-79
2021/09/19 06:59:23;;;;;;;16.60;14.85;;;13.90;99.90;;;;;;5053252;28;20025;-79
2021/09/19 07:01:48;;;;;;;16.83;14.35;;;14.00;99.90;;;;;;5053689;28;20089;-80
2021/09/19 07:04:14;;;;;;;14.07;12.70;;;14.00;99.90;;;;;;5052723;28;20562;-80
2021/09/19 07:06:39;;;;;;;15.68;14.07;;;14.10;99.90;;;;;;5053334;28;20552;-79
2021/09/19 07:09:05;;;;;;;17.33;13.95;;;14.10;99.90;;;;;;5053583;28;20473;-79
2021/09/19 07:11:31;;;;;;;14.65;13.05;;;14.20;99.90;;;;;;5052920;28;20032;-79
2021/09/19 07:13:56;;;;;;;13.90;12.50;;;14.20;99.90;;;;;;5053447;28;20465;-79
2021/09/19 07:16:22;;;;;;;15.55;13.02;;;14.30;99.90;;;;;;5053181;28;20370;-79
2021/09/19 07:18:47;;;;;;;13.48;12.18;;;14.40;99.90;;;;;;5052578;28;20025;-80
2021/09/19 07:21:13;;;;;;;16.13;13.95;;;14.40;99.90;;;;;;5053136;28;20037;-80
2021/09/19 07:23:38;;;;;;;18.80;14.95;;;14.50;99.90;;;;;;5053108;28;20074;-79
2021/09/19 07:26:04;;;;;;;19.23;16.98;;;14.50;99.90;;;;;;5052389;28;20028;-79
2021/09/19 07:28:30;;;;;;;17.23;15.43;;;14.60;99.90;;;;;;5053151;28;20021;-80
2021/09/19 07:30:56;;;;;;;14.27;12.90;;;14.70;99.90;;;;;;5052978;28;20032;-80
2021/09/19 07:33:22;;;;;;;14.70;13.13;;;14.80;99.90;;;;;;5052203;28;20044;-79
2021/09/19 07:35:49;;;;;;;14.82;13.27;;;14.80;99.90;;;;;;5052849;28;20535;-80
2021/09/19 07:38:15;;;;;;;13.50;11.75;;;14.80;99.90;;;;;;5052958;28;20029;-79
2021/09/19 07:40:41;;;;;;;13.13;11.93;;;14.90;99.90;;;;;;5051958;28;20044;-78
2021/09/19 07:43:07;;;;;;;12.88;11.68;;;15.00;99.90;;;;;;5052996;28;20027;-78
2021/09/19 07:45:33;;;;;;;12.77;11.60;;;15.00;99.90;;;;;;5052970;28;20094;-77
2021/09/19 07:48:01;;;;;;;13.77;10.82;;;15.10;99.90;;;;;;5052209;28;20477;-79
2021/09/19 07:50:27;;;;;;;12.45;11.35;;;15.20;99.90;;;;;;5052793;28;20033;-79
2021/09/19 07:52:52;;;;;;;10.55;9.50;;;15.20;99.90;;;;;;5053144;28;20025;-79
2021/09/19 07:55:18;;;;;;;12.25;11.15;;;15.30;99.90;;;;;;5052075;28;20028;-80
2021/09/19 07:57:44;;;;;;;10.55;9.63;;;15.30;99.90;;;;;;5052725;28;20138;-78
2021/09/19 08:00:10;;;;;;;11.73;10.63;;;15.40;99.90;;;;;;5052353;28;20417;-79
2021/09/19 08:02:36;;;;;;;10.70;9.70;;;15.40;99.90;;;;;;5052739;28;20539;-80
2021/09/19 08:05:02;;;;;;;11.63;10.15;;;15.50;99.90;;;;;;5052885;28;20017;-77
2021/09/19 08:07:28;;;;;;;10.38;9.27;;;15.60;99.90;;;;;;5052254;28;20025;-78
2021/09/19 08:09:53;;;;;;;10.27;9.40;;;15.70;99.90;;;;;;5052759;28;20384;-79
2021/09/19 08:12:19;;;;;;;10.75;9.80;;;15.70;99.90;;;;;;5052997;28;20378;-79
2021/09/19 08:14:45;;;;;;;9.32;8.55;;;15.70;99.90;;;;;;5052575;28;20159;-79
2021/09/19 08:17:11;;;;;;;9.88;9.02;;;15.80;99.90;;;;;;5053296;28;20421;-80
2021/09/19 08:19:37;;;;;;;9.13;8.43;;;15.90;99.90;;;;;;5052591;28;20021;-79
2021/09/19 08:22:03;;;;;;;10.07;9.27;;;15.90;99.90;;;;;;5051764;28;20060;-78
2021/09/19 08:24:28;;;;;;;10.50;9.35;;;15.90;99.90;;;;;;5055869;28;20025;-79
2021/09/19 08:26:57;;;;;;;9.80;9.00;;;16.00;99.90;;;;;;5053068;28;20029;-79
2021/09/19 08:29:23;;;;;;;10.13;9.10;;;16.00;99.90;;;;;;5051856;28;20028;-78
2021/09/19 08:31:49;;;;;;;9.02;8.25;;;16.20;99.90;;;;;;5052327;28;20021;-78
2021/09/19 08:34:15;;;;;;;9.90;9.00;;;16.20;99.90;;;;;;5052568;28;20036;-77
2021/09/19 08:36:40;;;;;;;9.77;8.65;;;16.30;99.90;;;;;;5055348;28;20021;-79
2021/09/19 08:39:08;;;;;;;8.90;8.18;;;16.30;99.90;;;;;;5052261;28;20131;-80
2021/09/19 08:41:34;;;;;;;9.15;8.27;;;16.30;99.90;;;;;;5052138;28;20077;-80
2021/09/19 08:44:00;;;;;;;8.50;7.80;;;16.40;99.90;;;;;;5051487;28;20492;-79
2021/09/19 08:46:25;;;;;;;9.38;8.50;;;16.40;99.90;;;;;;5052175;28;20029;-79
2021/09/19 08:48:51;;;;;;;9.52;8.57;;;16.50;99.90;;;;;;5052075;28;20048;-79
2021/09/19 08:51:18;;;;;;;9.30;8.50;;;16.50;99.90;;;;;;5051410;28;20385;-78
2021/09/19 08:53:44;;;;;;;9.55;8.32;;;16.50;99.90;;;;;;5052056;28;20025;-78
2021/09/19 08:56:10;;;;;;;7.65;6.95;;;16.60;99.90;;;;;;5052111;28;20036;-79
2021/09/19 08:58:39;;;;;;;8.98;8.25;;;16.70;99.90;;;;;;5051543;28;20017;-78
2021/09/19 09:01:05;;;;;;;8.55;7.85;;;16.80;99.90;;;;;;5055083;28;20065;-77
2021/09/19 09:03:31;;;;;;;7.70;7.03;;;16.80;99.90;;;;;;5055182;28;20078;-78
2021/09/19 09:05:58;;;;;;;7.53;6.93;;;16.90;99.90;;;;;;5055786;28;20475;-79
2021/09/19 09:08:25;;;;;;;7.88;7.18;;;16.90;99.90;;;;;;5055567;28;20499;-78
2021/09/19 09:10:53;;;;;;;8.50;7.32;;;16.90;99.90;;;;;;5055076;28;20084;-79
2021/09/19 09:13:22;;;;;;;6.95;6.45;;;17.00;99.90;;;;;;5055593;28;20113;-77
2021/09/19 09:15:49;;;;;;;7.07;6.47;;;17.00;99.90;;;;;;5055449;28;20025;-79
2021/09/19 09:18:30;;;;;;;8.40;6.82;;;17.10;99.90;;;;;;5054966;28;20076;-78
2021/09/19 09:21:07;;;;;;;8.55;7.22;;;17.10;99.90;;;;;;5055518;28;20131;-78
2021/09/19 09:23:38;;;;;;;6.70;6.10;;;17.20;99.90;;;;;;5055420;28;20025;-78
2021/09/19 09:26:13;;;;;;;7.65;6.93;;;17.20;99.90;;;;;;5054425;28;20029;-79
2021/09/19 09:28:46;;;;;;;10.35;7.30;;;17.20;99.90;;;;;;5055488;28;20113;-79
2021/09/19 09:31:19;;;;;;;6.60;6.07;;;17.30;99.90;;;;;;5055565;28;20036;-79
2021/09/19 09:34:04;;;;;;;7.85;6.70;;;17.40;99.90;;;;;;5054806;28;20028;-80
2021/09/19 09:36:37;;;;;;;9.10;6.80;;;17.50;99.90;;;;;;5055188;28;20029;-79
2021/09/19 09:39:20;;;;;;;7.53;6.82;;;17.50;99.90;;;;;;5054690;28;20123;-77
2021/09/19 09:41:45;;;;;;;7.78;6.93;;;17.70;99.90;;;;;;5055069;28;20511;-78
2021/09/19 09:44:31;;;;;;;9.43;7.22;;;17.70;99.90;;;;;;5055456;28;20028;-79
2021/09/19 09:46:58;;;;;;;7.00;6.28;;;17.80;99.90;;;;;;5054049;28;20397;-77
2021/09/19 09:49:38;;;;;;;7.38;6.68;;;17.70;99.90;;;;;;5055182;28;20032;-77
2021/09/19 09:52:25;;;;;;;8.75;7.07;;;17.80;99.90;;;;;;5055177;28;20029;-78
2021/09/19 09:54:56;;;;;;;7.45;6.13;;;17.80;99.90;;;;;;5056228;28;20393;-78
2021/09/19 09:57:34;;;;;;;7.97;7.38;;;17.90;99.90;;;;;;5056242;28;20554;-78
2021/09/19 10:00:00;;;;;;;8.18;6.60;;;18.00;99.90;;;;;;5055448;28;20029;-78
2021/09/19 10:02:27;;;;;;;6.93;6.22;;;18.00;99.90;;;;;;5055086;28;20040;-79
2021/09/19 10:04:54;;;;;;;9.20;6.55;;;18.10;99.90;;;;;;5056737;28;20017;-79
2021/09/19 10:07:21;;;;;;;7.32;6.63;;;18.10;99.90;;;;;;5059609;28;20040;-79
2021/09/19 10:09:47;;;;;;;6.05;5.45;;;18.20;99.90;;;;;;5071239;28;20080;-78
2021/09/19 10:12:13;;;;;;;7.07;6.38;;;18.30;99.90;;;;;;5064177;28;20067;-78
2021/09/19 10:14:38;;;;;;;6.50;6.00;;;18.40;99.90;;;;;;5054276;28;20029;-78
2021/09/19 10:17:04;;;;;;;6.28;5.78;;;18.40;99.90;;;;;;5054796;28;20033;-78
2021/09/19 10:19:30;;;;;;;7.57;5.80;;;18.50;99.90;;;;;;5054643;28;20040;-79
2021/09/19 10:21:58;;;;;;;6.50;6.00;;;18.50;99.90;;;;;;5053786;28;20370;-78
2021/09/19 10:24:25;;;;;;;7.13;6.10;;;18.50;99.90;;;;;;5055061;28;20053;-78
2021/09/19 10:26:55;;;;;;;6.60;6.10;;;18.60;99.90;;;;;;5054783;28;20369;-78
2021/09/19 10:29:23;;;;;;;6.60;5.68;;;18.70;99.90;;;;;;5053644;28;20040;-78
2021/09/19 10:31:49;;;;;;;6.18;5.78;;;18.70;99.90;;;;;;5054206;28;20033;-78
2021/09/19 10:34:51;;;;;;;8.10;5.75;;;18.80;99.90;;;;;;5053893;28;20021;-78
2021/09/19 10:37:52;;;;;;;6.53;5.93;;;18.80;99.90;;;;;;5022034;28;20037;-78
2021/09/19 10:40:38;;;;;;;6.70;5.88;;;18.90;99.90;;;;;;5054345;28;20041;-80
2021/09/19 10:43:19;;;;;;;7.10;6.40;;;19.00;99.90;;;;;;5053313;28;20119;-79
2021/09/19 10:45:50;;;;;;;6.75;6.13;;;19.10;99.90;;;;;;5053795;28;20113;-80
2021/09/19 10:48:25;;;;;;;6.32;5.82;;;19.20;99.90;;;;;;5053550;28;20037;-78
2021/09/19 10:51:01;;;;;;;7.03;6.30;;;19.40;99.90;;;;;;5053395;28;20044;-78
2021/09/19 10:53:27;;;;;;;6.68;6.18;;;19.50;99.90;;;;;;5054759;28;20021;-78
2021/09/19 10:55:54;;;;;;;7.15;6.57;;;19.50;99.90;;;;;;5053427;28;20028;-78
2021/09/19 10:58:26;;;;;;;7.15;6.35;;;19.50;99.90;;;;;;5052814;28;20460;-78
2021/09/19 11:01:18;;;;;;;6.55;5.95;;;19.50;99.90;;;;;;5053392;28;20048;-77
2021/09/19 11:04:06;;;;;;;5.82;5.38;;;19.60;99.90;;;;;;5052911;28;20033;-77
2021/09/19 11:06:38;;;;;;;5.82;5.32;;;19.60;99.90;;;;;;5054840;28;20163;-79
2021/09/19 11:09:24;;;;;;;6.43;5.93;;;19.70;99.90;;;;;;5054003;28;20078;-79
2021/09/19 11:12:19;;;;;;;7.15;6.10;;;19.70;99.90;;;;;;5053079;28;20503;-77
2021/09/19 11:14:56;;;;;;;7.00;6.30;;;19.70;99.90;;;;;;5052007;28;20397;-78
2021/09/19 11:17:23;;;;;;;6.72;6.13;;;19.80;99.90;;;;;;5052867;28;20553;-78
2021/09/19 11:20:16;;;;;;;6.32;5.82;;;19.80;99.90;;;;;;5053048;28;20070;-78
2021/09/19 11:22:54;;;;;;;6.68;6.07;;;19.90;99.90;;;;;;5050446;28;20049;-77
2021/09/19 11:25:21;;;;;;;6.63;6.13;;;19.90;99.90;;;;;;5052880;28;20488;-78
2021/09/19 11:27:49;;;;;;;6.45;5.95;;;20.10;99.90;;;;;;5053232;28;20067;-78
2021/09/19 11:30:21;;;;;;;6.07;5.57;;;20.30;99.90;;;;;;5052680;28;20063;-79
2021/09/19 11:32:47;;;;;;;5.68;5.18;;;20.30;99.90;;;;;;5052297;28;20104;-79
2021/09/19 11:35:13;;;;;;;5.85;5.35;;;20.40;99.90;;;;;;5052781;28;20036;-78
2021/09/19 11:37:39;;;;;;;5.70;5.20;;;20.50;99.90;;;;;;5053465;28;20465;-78
2021/09/19 11:40:09;;;;;;;5.63;5.22;;;20.50;99.90;;;;;;5052351;28;20053;-79
2021/09/19 11:42:36;;;;;;;6.45;5.78;;;20.50;99.90;;;;;;5052845;28;20437;-78
2021/09/19 11:45:09;;;;;;;5.85;5.35;;;20.50;99.90;;;;;;5052722;28;20049;-79
2021/09/19 11:47:37;;;;;;;5.50;5.10;;;20.50;99.90;;;;;;5051970;28;20531;-79
2021/09/19 11:50:06;;;;;;;5.68;5.18;;;20.60;99.90;;;;;;5052608;28;20037;-79
2021/09/19 11:52:32;;;;;;;7.30;5.90;;;20.60;99.90;;;;;;5052297;28;20540;-80
2021/09/19 11:54:57;;;;;;;5.65;5.15;;;20.70;99.90;;;;;;5052941;28;20109;-79
2021/09/19 11:57:23;;;;;;;5.85;5.35;;;20.70;99.90;;;;;;5052542;28;20057;-78
2021/09/19 11:59:48;;;;;;;5.63;5.18;;;20.70;99.90;;;;;;5052632;28;20029;-78
2021/09/19 12:02:15;;;;;;;6.25;5.75;;;20.70;99.90;;;;;;5052781;28;20079;-78
2021/09/19 12:04:46;;;;;;;6.25;5.70;;;20.80;99.90;;;;;;5053082;28;20466;-77
2021/09/19 12:07:14;;;;;;;5.95;5.43;;;20.90;99.90;;;;;;5051876;28;20029;-78
2021/09/19 12:09:47;;;;;;;5.47;4.97;;;20.90;99.90;;;;;;5052993;28;20033;-79
2021/09/19 12:12:14;;;;;;;5.68;5.18;;;21.10;99.90;;;;;;5052689;28;20112;-79
2021/09/19 12:14:47;;;;;;;5.80;5.40;;;21.10;99.90;;;;;;5053542;28;20032;-79
2021/09/19 12:17:14;;;;;;;4.80;4.40;;;21.00;99.90;;;;;;5052999;28;20473;-78
2021/09/19 12:19:45;;;;;;;4.93;4.43;;;21.10;99.90;;;;;;5052868;28;20351;-78
2021/09/19 12:22:23;;;;;;;5.13;4.55;;;21.10;99.90;;;;;;5052055;28;20061;-77
2021/09/19 12:24:58;;;;;;;5.20;4.70;;;21.10;99.90;;;;;;5053402;28;20017;-80
2021/09/19 12:27:30;;;;;;;5.65;4.18;;;21.20;99.90;;;;;;5053736;28;20108;-80
2021/09/19 12:29:58;;;;;;;7.35;3.40;;;21.40;99.90;;;;;;5054117;28;20052;-78
2021/09/19 12:32:49;;;;;;;3.63;3.33;;;21.50;99.90;;;;;;5053435;28;20025;-76
2021/09/19 12:35:16;;;;;;;4.18;3.88;;;21.60;99.90;;;;;;5056619;28;20389;-78
2021/09/19 12:37:45;;;;;;;3.35;3.15;;;21.80;99.90;;;;;;5056658;28;20021;-78